Terminal Aerodrome Forecast
Issued by NWS

Home | Current Version | Previous Version | Text Only | Print | Product List | Glossary On
Versions: 1 2 3 4 5 6 7 8 9 10 11 12 13
000
FTUS46 KSTO 271100
TAFRDD
TAF
KRDD 271139Z 2712/2812 31005KT P6SM BKN100
     FM271800 19010KT P6SM VCSH BKN035
      TEMPO 2720/2724 19010G15KT 5SM -SHRA BKN020
     FM280000 VRB05KT P6SM VCSH BKN100=

USA.gov is the U.S. government's official web portal to all federal, state and local government web resources and services.